Time;durP1;ratioP1;P1;durP2;ratioP2;P2;SDS_P1;SDS_P2;PMS_P1;PMS_P2;Temp;Humidity;BMP_temperature;BMP_pressure;BME280_temperature;BME280_humidity;BME280_pressure;Samples;Min_cycle;Max_cycle;Signal;HPM_P1;HPM_P2
2021/06/28 00:00:33;;;;;;;20.92;12.55;;;;;;;;;;4275377;33;20214;-76
2021/06/28 00:02:59;;;;;;;22.48;14.60;;;;;;;;;;4288620;33;20139;-76
2021/06/28 00:05:25;;;;;;;23.77;13.50;;;;;;;;;;4288461;33;20119;-76
2021/06/28 00:07:51;;;;;;;19.60;12.02;;;;;;;;;;4288505;33;20524;-75
2021/06/28 00:10:20;;;;;;;17.33;12.82;;;;;;;;;;4288431;33;20119;-76
2021/06/28 00:12:46;;;;;;;33.33;15.48;;;;;;;;;;4288347;33;20084;-76
2021/06/28 00:15:15;;;;;;;27.90;14.77;;;;;;;;;;4288422;33;20170;-75
2021/06/28 00:43:33;;;;;;;20.33;12.77;;;;;;;;;;4891792;28;20108;-73
2021/06/28 00:45:59;;;;;;;20.65;11.38;;;;;;;;;;4255237;33;20460;-73
2021/06/28 00:48:25;;;;;;;18.70;10.50;;;;;;;;;;4264397;33;20194;-73
2021/06/28 00:50:52;;;;;;;14.27;11.15;;;;;;;;;;4261771;33;20242;-72
2021/06/28 00:53:20;;;;;;;16.33;10.20;;;;;;;;;;4238870;33;20132;-73
2021/06/28 00:55:46;;;;;;;15.93;10.88;;;;;;;;;;4211288;33;20115;-73
2021/06/28 00:58:13;;;;;;;18.30;10.38;;;;;;;;;;4233966;33;20328;-73
2021/06/28 01:00:39;;;;;;;16.20;9.95;;;;;;;;;;4225190;33;20123;-73
2021/06/28 01:03:05;;;;;;;21.67;11.57;;;;;;;;;;4248358;33;20227;-74
2021/06/28 01:05:33;;;;;;;17.67;10.98;;;;;;;;;;4236712;33;20106;-74
2021/06/28 01:08:00;;;;;;;16.05;10.75;;;;;;;;;;4225312;33;20174;-74
2021/06/28 01:10:26;;;;;;;17.73;11.07;;;;;;;;;;4248285;33;20104;-74
2021/06/28 01:12:52;;;;;;;16.70;10.38;;;;;;;;;;4225126;33;20116;-74
2021/06/28 01:15:19;;;;;;;23.15;11.15;;;;;;;;;;4248350;33;20136;-73
2021/06/28 01:17:45;;;;;;;17.00;10.05;;;;;;;;;;4225166;33;20073;-74
2021/06/28 01:20:13;;;;;;;13.60;9.60;;;;;;;;;;4236423;33;20511;-73
2021/06/28 01:22:41;;;;;;;18.50;9.82;;;;;;;;;;4236570;33;20183;-73
2021/06/28 01:25:08;;;;;;;16.70;10.40;;;;;;;;;;4236535;33;20118;-74
2021/06/28 01:27:34;;;;;;;14.45;9.90;;;;;;;;;;4236636;33;20107;-74
2021/06/28 01:30:00;;;;;;;17.80;9.95;;;;;;;;;;4235892;33;20151;-74
2021/06/28 01:32:26;;;;;;;14.75;9.82;;;;;;;;;;4236221;33;20107;-73
2021/06/28 01:34:53;;;;;;;18.35;10.15;;;;;;;;;;4236271;33;20096;-73
2021/06/28 01:37:24;;;;;;;12.50;9.60;;;;;;;;;;4236509;33;20511;-73
2021/06/28 01:39:52;;;;;;;27.15;10.75;;;;;;;;;;4236216;33;20103;-74
2021/06/28 01:42:18;;;;;;;13.82;9.80;;;;;;;;;;4236578;33;20097;-74
2021/06/28 01:44:44;;;;;;;17.23;10.02;;;;;;;;;;4236346;33;20119;-74
2021/06/28 01:47:10;;;;;;;15.80;10.57;;;;;;;;;;4259956;33;20124;-73
2021/06/28 01:49:36;;;;;;;14.75;9.65;;;;;;;;;;4248031;33;20135;-74
2021/06/28 01:52:03;;;;;;;17.70;10.43;;;;;;;;;;4259723;33;20520;-73
2021/06/28 01:54:29;;;;;;;14.65;10.20;;;;;;;;;;4247992;33;20100;-74
2021/06/28 01:56:56;;;;;;;18.77;10.20;;;;;;;;;;4236205;33;20116;-74
2021/06/28 01:59:29;;;;;;;16.85;10.23;;;;;;;;;;4260799;33;20576;-74
2021/06/28 02:01:55;;;;;;;20.15;9.68;;;;;;;;;;4224564;33;20123;-73
2021/06/28 02:04:21;;;;;;;13.57;9.38;;;;;;;;;;4247541;33;20182;-74
2021/06/28 02:06:48;;;;;;;19.75;10.90;;;;;;;;;;4248027;33;20219;-74
2021/06/28 02:09:15;;;;;;;16.00;9.50;;;;;;;;;;4259209;33;20610;-74
2021/06/28 02:11:41;;;;;;;19.17;9.65;;;;;;;;;;4247730;33;20254;-74
2021/06/28 02:14:07;;;;;;;24.40;11.18;;;;;;;;;;4247804;33;20131;-74
2021/06/28 02:16:33;;;;;;;20.60;10.70;;;;;;;;;;4248088;33;20107;-74
2021/06/28 02:18:59;;;;;;;23.17;11.63;;;;;;;;;;4249935;33;20128;-74
2021/06/28 02:21:25;;;;;;;17.58;11.48;;;;;;;;;;4233680;33;20347;-72
2021/06/28 02:23:51;;;;;;;18.48;11.48;;;;;;;;;;4210445;33;20123;-71
2021/06/28 02:26:17;;;;;;;16.62;12.13;;;;;;;;;;4233665;33;20116;-69
2021/06/28 02:28:50;;;;;;;19.45;12.07;;;;;;;;;;4222081;33;20115;-66
2021/06/28 02:31:19;;;;;;;21.48;10.75;;;;;;;;;;4246774;33;20113;-66
2021/06/28 02:33:45;;;;;;;18.40;10.93;;;;;;;;;;4246742;33;20132;-67
2021/06/28 02:36:11;;;;;;;18.48;10.52;;;;;;;;;;4221879;33;20112;-67
2021/06/28 02:38:38;;;;;;;17.42;11.55;;;;;;;;;;4246621;33;20123;-67
2021/06/28 02:41:04;;;;;;;18.67;11.05;;;;;;;;;;4233555;33;20573;-67
2021/06/28 02:43:30;;;;;;;17.48;10.75;;;;;;;;;;4233441;33;20203;-67
2021/06/28 02:45:56;;;;;;;16.85;10.48;;;;;;;;;;4232468;33;20108;-68
2021/06/28 02:48:22;;;;;;;18.48;10.75;;;;;;;;;;4235800;33;20178;-68
2021/06/28 02:50:49;;;;;;;22.25;11.25;;;;;;;;;;4247520;33;20219;-68
2021/06/28 02:53:17;;;;;;;19.77;11.15;;;;;;;;;;4247309;33;20207;-67
2021/06/28 02:55:44;;;;;;;13.95;10.23;;;;;;;;;;4236193;33;20183;-66
2021/06/28 02:58:10;;;;;;;20.15;10.85;;;;;;;;;;4260619;33;20199;-65
2021/06/28 03:00:36;;;;;;;22.10;11.48;;;;;;;;;;4246676;33;20447;-66
2021/06/28 03:03:02;;;;;;;18.52;11.60;;;;;;;;;;4221555;33;20117;-66
2021/06/28 03:05:28;;;;;;;17.62;10.68;;;;;;;;;;4245555;33;20108;-66
2021/06/28 03:07:54;;;;;;;17.80;10.25;;;;;;;;;;4234439;33;20125;-66
2021/06/28 03:10:20;;;;;;;20.10;10.15;;;;;;;;;;4234088;33;20138;-66
2021/06/28 03:12:46;;;;;;;17.10;10.15;;;;;;;;;;4234430;33;20135;-66
2021/06/28 03:15:14;;;;;;;18.35;9.88;;;;;;;;;;4245984;33;20107;-66
2021/06/28 03:17:40;;;;;;;20.02;9.55;;;;;;;;;;4235793;33;20184;-66
2021/06/28 03:20:08;;;;;;;20.02;11.27;;;;;;;;;;4235414;33;20092;-65
2021/06/28 03:22:35;;;;;;;15.70;9.23;;;;;;;;;;4247380;33;20116;-65
2021/06/28 03:25:01;;;;;;;18.58;10.30;;;;;;;;;;4260210;33;20156;-67
2021/06/28 03:27:27;;;;;;;18.90;8.65;;;;;;;;;;4247279;33;20187;-66
2021/06/28 03:29:54;;;;;;;14.93;8.98;;;;;;;;;;4260143;33;20550;-66
2021/06/28 03:32:20;;;;;;;12.63;8.65;;;;;;;;;;4235450;33;20425;-68
2021/06/28 03:34:46;;;;;;;12.45;8.25;;;;;;;;;;4235615;33;20120;-68
2021/06/28 03:37:12;;;;;;;13.13;8.60;;;;;;;;;;4247216;33;20504;-68
2021/06/28 03:39:37;;;;;;;18.15;8.25;;;;;;;;;;4247183;33;20210;-67
2021/06/28 03:42:04;;;;;;;11.50;7.55;;;;;;;;;;4260060;33;20128;-68
2021/06/28 03:44:30;;;;;;;15.63;6.93;;;;;;;;;;4246911;33;20440;-67
2021/06/28 03:46:56;;;;;;;14.45;7.55;;;;;;;;;;4235385;33;20124;-68
2021/06/28 03:49:22;;;;;;;17.83;6.68;;;;;;;;;;4235392;33;20226;-68
2021/06/28 03:51:48;;;;;;;12.85;7.05;;;;;;;;;;4247089;33;20140;-68
2021/06/28 03:54:14;;;;;;;11.07;6.97;;;;;;;;;;4223058;33;20118;-67
2021/06/28 03:56:40;;;;;;;11.00;6.47;;;;;;;;;;4235202;33;20136;-68
2021/06/28 03:59:05;;;;;;;11.48;6.40;;;;;;;;;;4246936;33;20582;-67
2021/06/28 04:01:31;;;;;;;16.08;6.25;;;;;;;;;;4246911;33;20097;-68
2021/06/28 04:03:57;;;;;;;10.60;6.90;;;;;;;;;;4259961;33;20101;-68
2021/06/28 04:06:24;;;;;;;15.77;6.82;;;;;;;;;;4259908;33;20132;-67
2021/06/28 04:08:50;;;;;;;10.38;6.25;;;;;;;;;;4247009;33;20120;-67
2021/06/28 04:11:18;;;;;;;12.07;6.20;;;;;;;;;;4246813;33;20624;-68
2021/06/28 04:13:44;;;;;;;8.95;6.28;;;;;;;;;;4246860;33;20096;-68
2021/06/28 04:16:11;;;;;;;11.20;5.97;;;;;;;;;;4235449;33;20317;-67
2021/06/28 04:18:37;;;;;;;12.63;6.62;;;;;;;;;;4234986;33;20195;-67
2021/06/28 04:21:03;;;;;;;11.40;6.50;;;;;;;;;;4246903;33;20159;-68
2021/06/28 04:23:29;;;;;;;11.43;5.40;;;;;;;;;;4223292;33;20560;-68
2021/06/28 04:25:55;;;;;;;9.32;5.50;;;;;;;;;;4246898;33;20151;-68
2021/06/28 04:28:21;;;;;;;10.48;5.22;;;;;;;;;;4246506;33;20104;-68
2021/06/28 04:30:47;;;;;;;10.63;6.07;;;;;;;;;;4246711;33;20096;-67
2021/06/28 04:33:13;;;;;;;9.05;5.60;;;;;;;;;;4234862;33;20567;-67
2021/06/28 04:35:38;;;;;;;9.27;5.53;;;;;;;;;;4246623;33;20158;-68
2021/06/28 04:38:04;;;;;;;8.32;5.22;;;;;;;;;;4246458;33;20113;-67
2021/06/28 04:40:30;;;;;;;8.75;4.93;;;;;;;;;;4223133;33;20132;-67
2021/06/28 04:42:56;;;;;;;6.72;5.60;;;;;;;;;;4234674;33;20633;-68
2021/06/28 04:45:23;;;;;;;9.45;5.50;;;;;;;;;;4246326;33;20116;-67
2021/06/28 04:47:50;;;;;;;11.48;6.07;;;;;;;;;;4223260;33;20139;-68
2021/06/28 04:50:17;;;;;;;13.35;5.18;;;;;;;;;;4246571;33;20124;-67
2021/06/28 04:52:43;;;;;;;9.75;5.05;;;;;;;;;;4222936;33;20159;-68
2021/06/28 04:55:10;;;;;;;8.90;5.25;;;;;;;;;;4222867;33;20569;-68
2021/06/28 04:57:36;;;;;;;11.18;6.07;;;;;;;;;;4234759;33;20535;-68
2021/06/28 05:00:06;;;;;;;7.85;5.07;;;;;;;;;;4259189;33;20116;-68
2021/06/28 05:02:33;;;;;;;6.70;5.03;;;;;;;;;;4246111;33;20598;-68
2021/06/28 05:04:58;;;;;;;11.55;5.65;;;;;;;;;;4223121;33;20262;-67
2021/06/28 05:07:24;;;;;;;9.15;4.93;;;;;;;;;;4236730;33;20124;-68
2021/06/28 05:09:50;;;;;;;8.75;5.05;;;;;;;;;;4248047;33;20127;-67
2021/06/28 05:12:16;;;;;;;16.10;6.03;;;;;;;;;;4261243;33;20143;-68
2021/06/28 05:14:43;;;;;;;9.30;4.37;;;;;;;;;;4261129;33;20202;-67
2021/06/28 05:17:09;;;;;;;8.43;5.10;;;;;;;;;;4236256;33;20139;-68
2021/06/28 05:19:35;;;;;;;8.57;5.10;;;;;;;;;;4248297;33;20211;-67
2021/06/28 05:22:01;;;;;;;8.60;5.28;;;;;;;;;;4236341;33;20304;-67
2021/06/28 05:24:27;;;;;;;14.35;4.90;;;;;;;;;;4236358;33;20144;-67
2021/06/28 05:26:53;;;;;;;11.75;5.82;;;;;;;;;;4248091;33;20131;-67
2021/06/28 05:29:19;;;;;;;11.25;5.32;;;;;;;;;;4247803;33;20551;-67
2021/06/28 05:31:45;;;;;;;11.88;5.18;;;;;;;;;;4236244;33;20123;-68
2021/06/28 05:34:11;;;;;;;9.35;6.10;;;;;;;;;;4261205;33;20433;-67
2021/06/28 05:36:37;;;;;;;8.77;5.15;;;;;;;;;;4261111;33;20107;-67
2021/06/28 05:39:04;;;;;;;14.02;8.30;;;;;;;;;;4235970;33;20099;-68
2021/06/28 05:41:30;;;;;;;7.18;4.57;;;;;;;;;;4248125;33;20104;-67
2021/06/28 05:43:56;;;;;;;11.68;5.50;;;;;;;;;;4236106;33;20191;-68
2021/06/28 05:46:22;;;;;;;7.37;5.60;;;;;;;;;;4247748;33;20112;-68
2021/06/28 05:48:48;;;;;;;8.88;5.18;;;;;;;;;;4247610;33;20593;-68
2021/06/28 05:51:17;;;;;;;15.88;5.68;;;;;;;;;;4224502;33;20119;-68
2021/06/28 05:53:43;;;;;;;9.85;5.47;;;;;;;;;;4236502;33;20113;-67
2021/06/28 05:56:09;;;;;;;10.32;5.75;;;;;;;;;;4248012;33;20112;-68
2021/06/28 05:58:35;;;;;;;12.77;6.18;;;;;;;;;;4247591;33;20128;-68
2021/06/28 06:01:01;;;;;;;13.52;6.18;;;;;;;;;;4235988;33;20226;-68
2021/06/28 06:03:27;;;;;;;15.05;5.75;;;;;;;;;;4247941;33;20532;-68
2021/06/28 06:05:53;;;;;;;10.98;5.25;;;;;;;;;;4247962;33;20108;-69
2021/06/28 06:08:23;;;;;;;8.52;5.70;;;;;;;;;;4236004;33;20603;-68
2021/06/28 06:10:53;;;;;;;18.10;6.00;;;;;;;;;;4225247;33;20115;-68
2021/06/28 06:13:19;;;;;;;10.05;6.60;;;;;;;;;;4224456;33;20108;-68
2021/06/28 06:15:45;;;;;;;12.80;6.30;;;;;;;;;;4247351;33;20202;-68
2021/06/28 06:18:11;;;;;;;11.12;5.75;;;;;;;;;;4247967;33;20120;-68
2021/06/28 06:20:37;;;;;;;8.85;5.18;;;;;;;;;;4236299;33;20112;-68
2021/06/28 06:23:03;;;;;;;8.05;5.53;;;;;;;;;;4247587;33;20199;-68
2021/06/28 06:25:29;;;;;;;9.82;5.65;;;;;;;;;;4247823;33;20116;-68
2021/06/28 06:27:55;;;;;;;10.35;5.75;;;;;;;;;;4260722;33;20464;-68
2021/06/28 06:30:21;;;;;;;19.90;5.90;;;;;;;;;;4247484;33;20166;-68
2021/06/28 06:32:48;;;;;;;11.80;6.10;;;;;;;;;;4235899;33;20131;-68
2021/06/28 06:35:14;;;;;;;8.32;5.07;;;;;;;;;;4224183;33;20127;-67
2021/06/28 06:37:40;;;;;;;11.95;5.75;;;;;;;;;;4224196;33;20107;-67
2021/06/28 06:40:07;;;;;;;7.60;5.53;;;;;;;;;;4247436;33;20104;-68
2021/06/28 06:42:33;;;;;;;13.73;5.50;;;;;;;;;;4235965;33;20111;-68
2021/06/28 06:44:59;;;;;;;10.80;5.82;;;;;;;;;;4247222;33;20179;-68
2021/06/28 06:47:25;;;;;;;7.32;5.40;;;;;;;;;;4247812;33;20140;-68
2021/06/28 06:49:51;;;;;;;8.60;5.70;;;;;;;;;;4260620;33;20123;-67
2021/06/28 06:52:17;;;;;;;8.80;5.68;;;;;;;;;;4247424;33;20121;-67
2021/06/28 06:54:43;;;;;;;10.15;5.87;;;;;;;;;;4247372;33;20199;-68
2021/06/28 06:57:10;;;;;;;20.75;5.72;;;;;;;;;;4260487;33;20120;-68
2021/06/28 06:59:37;;;;;;;7.68;5.22;;;;;;;;;;4260394;33;20207;-67
2021/06/28 07:02:04;;;;;;;8.48;5.87;;;;;;;;;;4235743;33;20226;-67
2021/06/28 07:04:30;;;;;;;14.43;5.57;;;;;;;;;;4235791;33;20089;-68
2021/06/28 07:06:56;;;;;;;9.60;5.60;;;;;;;;;;4247297;33;20118;-68
2021/06/28 07:09:22;;;;;;;9.10;6.00;;;;;;;;;;4247034;33;20100;-68
2021/06/28 07:11:48;;;;;;;6.72;5.03;;;;;;;;;;4260238;33;20120;-68
2021/06/28 07:14:13;;;;;;;8.48;5.50;;;;;;;;;;4247378;33;20123;-67
2021/06/28 07:16:39;;;;;;;8.15;5.62;;;;;;;;;;4223666;33;20144;-68
2021/06/28 07:19:05;;;;;;;8.50;5.75;;;;;;;;;;4235651;33;20448;-67
2021/06/28 07:21:33;;;;;;;10.00;5.72;;;;;;;;;;4247239;33;20144;-68
2021/06/28 07:23:59;;;;;;;7.47;5.40;;;;;;;;;;4247302;33;20115;-67
2021/06/28 07:26:25;;;;;;;12.93;5.72;;;;;;;;;;4223776;33;20441;-68
2021/06/28 07:28:54;;;;;;;10.68;5.97;;;;;;;;;;4259345;33;20504;-68
2021/06/28 07:31:21;;;;;;;9.60;5.55;;;;;;;;;;4260090;33;20569;-67
2021/06/28 07:33:46;;;;;;;9.35;4.87;;;;;;;;;;4235526;33;20104;-68
2021/06/28 07:36:12;;;;;;;9.65;5.97;;;;;;;;;;4260338;33;20290;-68
2021/06/28 07:38:39;;;;;;;9.48;5.18;;;;;;;;;;4246889;33;20167;-68
2021/06/28 07:41:05;;;;;;;8.13;5.25;;;;;;;;;;4235070;33;20104;-68
2021/06/28 07:43:31;;;;;;;10.13;5.28;;;;;;;;;;4246755;33;20131;-69
2021/06/28 07:45:57;;;;;;;10.23;5.80;;;;;;;;;;4229494;33;20108;-68
2021/06/28 07:48:23;;;;;;;7.62;5.25;;;;;;;;;;4232849;33;20613;-67
2021/06/28 07:50:48;;;;;;;8.98;5.82;;;;;;;;;;4233013;33;20137;-68
2021/06/28 07:53:15;;;;;;;7.87;5.07;;;;;;;;;;4232791;33;20426;-68
2021/06/28 07:55:42;;;;;;;11.98;6.60;;;;;;;;;;4245761;33;20214;-68
2021/06/28 07:58:08;;;;;;;5.85;5.18;;;;;;;;;;4220928;33;20108;-68
2021/06/28 08:00:34;;;;;;;6.50;5.75;;;;;;;;;;4197992;33;20516;-68
2021/06/28 08:03:00;;;;;;;7.57;5.80;;;;;;;;;;4232701;33;20102;-68
2021/06/28 08:05:26;;;;;;;7.78;5.95;;;;;;;;;;4232643;33;20096;-68
2021/06/28 08:07:52;;;;;;;9.70;6.07;;;;;;;;;;4232402;33;20124;-68
2021/06/28 08:10:18;;;;;;;14.15;7.78;;;;;;;;;;4245539;33;20195;-68
2021/06/28 08:12:45;;;;;;;12.93;6.47;;;;;;;;;;4209275;33;20124;-67
2021/06/28 08:15:12;;;;;;;8.45;6.30;;;;;;;;;;4245830;33;20104;-68
2021/06/28 08:17:38;;;;;;;11.77;5.72;;;;;;;;;;4245537;33;20128;-69
2021/06/28 08:20:05;;;;;;;10.60;5.22;;;;;;;;;;4232187;33;20113;-68
2021/06/28 08:22:31;;;;;;;12.30;5.60;;;;;;;;;;4232565;33;20183;-68
2021/06/28 08:24:57;;;;;;;11.70;5.75;;;;;;;;;;4232496;33;20524;-68
2021/06/28 08:27:23;;;;;;;13.23;5.68;;;;;;;;;;4232680;33;20200;-68
2021/06/28 08:29:49;;;;;;;10.05;6.22;;;;;;;;;;4220951;33;20477;-68
2021/06/28 08:32:15;;;;;;;7.43;5.55;;;;;;;;;;4245341;33;20535;-68
2021/06/28 08:34:41;;;;;;;13.45;6.90;;;;;;;;;;4232248;33;20113;-68
2021/06/28 08:37:07;;;;;;;9.02;5.75;;;;;;;;;;4245724;33;20120;-68
2021/06/28 08:39:32;;;;;;;12.02;6.50;;;;;;;;;;4233007;33;20174;-68
2021/06/28 08:41:58;;;;;;;10.85;5.15;;;;;;;;;;4210999;33;20214;-68
2021/06/28 08:44:24;;;;;;;5.87;5.10;;;;;;;;;;4235647;33;20116;-68
2021/06/28 08:46:50;;;;;;;7.10;5.68;;;;;;;;;;4236994;33;20123;-69
2021/06/28 08:49:16;;;;;;;6.85;5.82;;;;;;;;;;4261877;33;20458;-68
2021/06/28 08:51:43;;;;;;;9.73;5.75;;;;;;;;;;4248423;33;20097;-68
2021/06/28 08:54:10;;;;;;;9.10;5.45;;;;;;;;;;4236600;33;20637;-68
2021/06/28 08:56:40;;;;;;;6.93;5.30;;;;;;;;;;4261558;33;20115;-68
2021/06/28 08:59:06;;;;;;;11.98;4.60;;;;;;;;;;4236722;33;20180;-68
2021/06/28 09:01:33;;;;;;;6.87;4.55;;;;;;;;;;4248354;33;20153;-68
2021/06/28 09:03:59;;;;;;;12.23;5.43;;;;;;;;;;4236561;33;20088;-68
2021/06/28 09:06:25;;;;;;;9.73;5.15;;;;;;;;;;4248521;33;20108;-68
2021/06/28 09:09:02;;;;;;;8.60;5.62;;;;;;;;;;4236547;33;20616;-68
2021/06/28 09:11:28;;;;;;;10.98;5.43;;;;;;;;;;4261811;33;20221;-68
2021/06/28 09:13:55;;;;;;;6.25;4.60;;;;;;;;;;4261489;33;20163;-68
2021/06/28 09:16:26;;;;;;;10.05;5.47;;;;;;;;;;4236854;33;20187;-68
2021/06/28 09:19:01;;;;;;;7.68;5.10;;;;;;;;;;4248458;33;20187;-68
2021/06/28 09:21:32;;;;;;;5.82;5.22;;;;;;;;;;4225132;33;20189;-68
2021/06/28 09:24:00;;;;;;;7.55;5.60;;;;;;;;;;4248332;33;20113;-68
2021/06/28 09:26:30;;;;;;;6.85;5.10;;;;;;;;;;4236773;33;20128;-68
2021/06/28 09:28:58;;;;;;;8.70;5.25;;;;;;;;;;4236678;33;20115;-68
2021/06/28 09:31:44;;;;;;;6.28;5.20;;;;;;;;;;4225230;33;20104;-68
2021/06/28 09:34:16;;;;;;;7.57;5.62;;;;;;;;;;4236154;33;20128;-68
2021/06/28 09:36:54;;;;;;;10.20;4.68;;;;;;;;;;4248287;33;20539;-68
2021/06/28 09:39:25;;;;;;;8.45;5.60;;;;;;;;;;4248461;33;20568;-68
2021/06/28 09:41:58;;;;;;;11.40;5.07;;;;;;;;;;4225429;33;20203;-68
2021/06/28 09:44:29;;;;;;;9.52;5.62;;;;;;;;;;4237563;33;20121;-67
2021/06/28 09:47:09;;;;;;;6.20;4.87;;;;;;;;;;4225168;33;20221;-68
2021/06/28 09:49:35;;;;;;;13.95;5.30;;;;;;;;;;4248330;33;20140;-68
2021/06/28 09:52:02;;;;;;;7.53;5.07;;;;;;;;;;4235846;33;20201;-68
2021/06/28 09:54:28;;;;;;;7.28;4.97;;;;;;;;;;4261508;33;20104;-69
2021/06/28 09:56:54;;;;;;;7.82;5.53;;;;;;;;;;4236543;33;20135;-68
2021/06/28 09:59:35;;;;;;;13.77;5.72;;;;;;;;;;4224572;33;20163;-69
2021/06/28 10:02:19;;;;;;;6.32;5.20;;;;;;;;;;4248309;33;20108;-68
2021/06/28 10:05:02;;;;;;;9.77;5.67;;;;;;;;;;4248444;33;20112;-68
2021/06/28 10:07:33;;;;;;;11.45;4.87;;;;;;;;;;4238808;33;20203;-68
2021/06/28 10:10:19;;;;;;;6.87;5.78;;;;;;;;;;4236507;33;20108;-68
2021/06/28 10:12:47;;;;;;;8.00;5.70;;;;;;;;;;4248196;33;20119;-69
2021/06/28 10:15:17;;;;;;;7.00;5.32;;;;;;;;;;4247754;33;20106;-68
2021/06/28 10:17:44;;;;;;;6.62;5.53;;;;;;;;;;4236295;33;20123;-68
2021/06/28 10:20:11;;;;;;;6.47;5.25;;;;;;;;;;4224453;33;20105;-68
2021/06/28 10:22:38;;;;;;;12.93;6.45;;;;;;;;;;4236463;33;20512;-68
2021/06/28 10:25:04;;;;;;;7.62;5.47;;;;;;;;;;4236109;33;20112;-68
2021/06/28 10:27:30;;;;;;;10.48;5.90;;;;;;;;;;4248019;33;20104;-68
2021/06/28 10:29:56;;;;;;;15.57;5.95;;;;;;;;;;4247714;33;20207;-68
2021/06/28 10:32:22;;;;;;;10.15;5.75;;;;;;;;;;4247907;33;20524;-68
2021/06/28 10:34:52;;;;;;;11.63;6.03;;;;;;;;;;4248097;33;20533;-68
2021/06/28 10:37:35;;;;;;;7.47;6.00;;;;;;;;;;4235851;33;20105;-68
2021/06/28 10:40:10;;;;;;;10.23;5.90;;;;;;;;;;4213227;33;20089;-68
2021/06/28 10:42:58;;;;;;;8.05;6.18;;;;;;;;;;4236167;33;20186;-68
2021/06/28 10:45:41;;;;;;;9.68;6.32;;;;;;;;;;4249694;33;20112;-68
2021/06/28 10:48:18;;;;;;;7.87;6.05;;;;;;;;;;4235724;33;20120;-68
2021/06/28 10:50:54;;;;;;;10.07;6.53;;;;;;;;;;4236065;33;20097;-68
2021/06/28 10:53:29;;;;;;;7.40;6.07;;;;;;;;;;4260632;33;20136;-68
2021/06/28 10:55:55;;;;;;;12.30;6.25;;;;;;;;;;4260710;33;20132;-68
2021/06/28 10:58:26;;;;;;;8.75;5.37;;;;;;;;;;4235963;33;20120;-68
2021/06/28 11:00:52;;;;;;;10.13;5.72;;;;;;;;;;4235945;33;20113;-69
2021/06/28 11:03:30;;;;;;;10.73;5.75;;;;;;;;;;4234716;33;20207;-68
2021/06/28 11:06:15;;;;;;;15.38;5.55;;;;;;;;;;4247657;33;20123;-68
2021/06/28 11:09:08;;;;;;;11.05;5.25;;;;;;;;;;4260592;33;20335;-68
2021/06/28 11:11:43;;;;;;;7.68;5.22;;;;;;;;;;4244722;33;20112;-67
2021/06/28 11:14:10;;;;;;;10.50;5.43;;;;;;;;;;4260581;33;20102;-68
2021/06/28 11:16:37;;;;;;;9.88;5.60;;;;;;;;;;4235925;33;20128;-68
2021/06/28 11:19:42;;;;;;;8.00;6.12;;;;;;;;;;4260638;33;20195;-67
2021/06/28 11:22:27;;;;;;;8.07;6.00;;;;;;;;;;4247350;33;20115;-67
2021/06/28 11:25:12;;;;;;;6.75;6.05;;;;;;;;;;4260583;33;20112;-67
2021/06/28 11:27:39;;;;;;;;;;;;;;;;;;4247827;33;20203;-67
2021/06/28 11:30:13;;;;;;;9.30;5.00;;;;;;;;;;4260540;33;19999;-67
2021/06/28 11:33:05;;;;;;;10.50;5.37;;;;;;;;;;4224506;33;20450;-67
2021/06/28 11:35:48;;;;;;;7.28;4.60;;;;;;;;;;4235703;33;20142;-68
2021/06/28 11:38:27;;;;;;;8.73;4.47;;;;;;;;;;4235782;33;20108;-68
2021/06/28 11:40:57;;;;;;;11.77;5.00;;;;;;;;;;4223968;33;20104;-68
2021/06/28 11:43:43;;;;;;;8.57;4.90;;;;;;;;;;4235643;33;20267;-67
2021/06/28 11:46:10;;;;;;;9.80;5.35;;;;;;;;;;4233021;33;20160;-67
2021/06/28 11:48:49;;;;;;;8.43;4.90;;;;;;;;;;4233013;33;20195;-68
2021/06/28 11:51:38;;;;;;;5.97;4.75;;;;;;;;;;4233283;33;20095;-67
2021/06/28 11:54:09;;;;;;;13.98;4.80;;;;;;;;;;4246105;33;20096;-68
2021/06/28 11:56:43;;;;;;;6.75;5.12;;;;;;;;;;4233133;33;20092;-67
2021/06/28 11:59:13;;;;;;;7.20;5.20;;;;;;;;;;4245791;33;20113;-68
2021/06/28 12:01:46;;;;;;;8.07;4.93;;;;;;;;;;4233618;33;20119;-68
2021/06/28 12:04:19;;;;;;;9.48;4.97;;;;;;;;;;4245659;33;20096;-68
2021/06/28 12:06:45;;;;;;;7.65;4.68;;;;;;;;;;4245883;33;20199;-69
2021/06/28 12:09:14;;;;;;;9.75;4.12;;;;;;;;;;4221511;33;20116;-68
2021/06/28 12:12:00;;;;;;;3.83;3.22;;;;;;;;;;4233003;33;20112;-68
2021/06/28 12:14:42;;;;;;;5.87;4.12;;;;;;;;;;4233586;33;20105;-68
2021/06/28 12:17:35;;;;;;;7.78;4.43;;;;;;;;;;4224264;33;20115;-68
2021/06/28 12:20:07;;;;;;;6.10;5.18;;;;;;;;;;4225144;33;20096;-68
2021/06/28 12:22:38;;;;;;;12.48;5.78;;;;;;;;;;4234978;33;20437;-68
2021/06/28 12:25:05;;;;;;;7.62;5.15;;;;;;;;;;4234822;33;20104;-68
2021/06/28 12:27:32;;;;;;;9.32;7.00;;;;;;;;;;4234595;33;20085;-68
2021/06/28 12:29:59;;;;;;;7.00;4.53;;;;;;;;;;4234479;33;20514;-68
2021/06/28 12:32:44;;;;;;;10.23;5.32;;;;;;;;;;4223146;33;20212;-68
2021/06/28 12:35:13;;;;;;;4.90;4.18;;;;;;;;;;4234661;33;20101;-68
2021/06/28 12:37:47;;;;;;;6.30;4.28;;;;;;;;;;4211423;33;20105;-68
2021/06/28 12:40:35;;;;;;;11.48;5.87;;;;;;;;;;4223834;33;20306;-68
2021/06/28 12:43:23;;;;;;;9.13;4.40;;;;;;;;;;4223844;33;20135;-68
2021/06/28 12:45:50;;;;;;;7.90;4.60;;;;;;;;;;4257463;33;20104;-68
2021/06/28 12:48:21;;;;;;;7.82;4.62;;;;;;;;;;4248661;33;20203;-67
2021/06/28 12:51:00;;;;;;;5.57;4.55;;;;;;;;;;4236886;33;20207;-68
2021/06/28 12:53:27;;;;;;;7.45;4.78;;;;;;;;;;4248238;33;20215;-67
2021/06/28 12:56:04;;;;;;;7.70;4.40;;;;;;;;;;4225422;33;20099;-67
2021/06/28 12:58:44;;;;;;;9.50;4.85;;;;;;;;;;4225332;33;20116;-67
2021/06/28 13:01:10;;;;;;;7.35;4.37;;;;;;;;;;4236581;33;20093;-67
2021/06/28 13:03:36;;;;;;;8.85;4.45;;;;;;;;;;4236974;33;20105;-67
2021/06/28 13:06:12;;;;;;;5.57;4.75;;;;;;;;;;4261512;33;20491;-68
2021/06/28 13:08:38;;;;;;;6.07;3.87;;;;;;;;;;4236908;33;20092;-67
2021/06/28 13:11:07;;;;;;;7.18;4.60;;;;;;;;;;4224848;33;20105;-67
2021/06/28 13:13:39;;;;;;;6.85;4.60;;;;;;;;;;4236913;33;20200;-67
2021/06/28 13:16:19;;;;;;;8.95;5.80;;;;;;;;;;4248817;33;20215;-67
2021/06/28 13:19:08;;;;;;;6.82;4.97;;;;;;;;;;4237483;33;20112;-68
2021/06/28 13:21:42;;;;;;;7.18;4.90;;;;;;;;;;4226343;33;20119;-68
2021/06/28 13:24:21;;;;;;;5.18;4.57;;;;;;;;;;4236818;33;20109;-67
2021/06/28 13:26:48;;;;;;;9.43;5.07;;;;;;;;;;4224648;33;20117;-68
2021/06/28 13:29:18;;;;;;;7.62;6.03;;;;;;;;;;4225189;33;20155;-68
2021/06/28 13:31:48;;;;;;;12.37;6.97;;;;;;;;;;4236768;33;20099;-68
2021/06/28 13:34:14;;;;;;;12.32;5.20;;;;;;;;;;4248467;33;20085;-67
2021/06/28 13:36:58;;;;;;;9.10;6.00;;;;;;;;;;4248143;33;20108;-68
2021/06/28 13:39:57;;;;;;;7.65;5.07;;;;;;;;;;4238368;33;20413;-68
2021/06/28 13:42:24;;;;;;;14.15;5.55;;;;;;;;;;4235382;33;20128;-68
2021/06/28 13:45:13;;;;;;;9.65;5.55;;;;;;;;;;4248119;33;20485;-68
2021/06/28 13:47:50;;;;;;;11.82;5.97;;;;;;;;;;4248740;33;20189;-67
2021/06/28 13:50:18;;;;;;;10.25;5.70;;;;;;;;;;4261197;33;20195;-67
2021/06/28 13:52:44;;;;;;;8.38;5.47;;;;;;;;;;4248077;33;20119;-68
2021/06/28 13:55:11;;;;;;;14.23;6.05;;;;;;;;;;4236340;33;20112;-67
2021/06/28 13:57:47;;;;;;;21.45;7.32;;;;;;;;;;4248153;33;20085;-67
2021/06/28 14:00:18;;;;;;;9.75;5.40;;;;;;;;;;4248189;33;20100;-67
2021/06/28 14:02:43;;;;;;;8.65;5.15;;;;;;;;;;4224974;33;20179;-68
2021/06/28 14:05:10;;;;;;;12.27;7.00;;;;;;;;;;4247589;33;20558;-68
2021/06/28 14:07:36;;;;;;;14.30;7.28;;;;;;;;;;4247976;33;20182;-68
2021/06/28 14:10:03;;;;;;;18.15;5.12;;;;;;;;;;4248015;33;20140;-68
2021/06/28 14:12:29;;;;;;;9.23;5.03;;;;;;;;;;4247740;33;20128;-69
2021/06/28 14:14:55;;;;;;;10.57;5.72;;;;;;;;;;4224904;33;20128;-68
2021/06/28 14:17:21;;;;;;;10.30;7.65;;;;;;;;;;4261133;33;20131;-69
2021/06/28 14:19:46;;;;;;;17.35;6.87;;;;;;;;;;4236104;33;20120;-69
2021/06/28 14:22:12;;;;;;;10.98;5.85;;;;;;;;;;4236366;33;20489;-68
2021/06/28 14:24:38;;;;;;;6.32;5.62;;;;;;;;;;4224337;33;20196;-69
2021/06/28 14:27:04;;;;;;;8.77;5.78;;;;;;;;;;4247694;33;20101;-68
2021/06/28 14:29:33;;;;;;;11.38;6.18;;;;;;;;;;4260773;33;20103;-68
2021/06/28 14:32:00;;;;;;;7.50;5.25;;;;;;;;;;4247915;33;20105;-69
2021/06/28 14:34:26;;;;;;;7.72;5.53;;;;;;;;;;4247903;33;20143;-69
2021/06/28 14:36:52;;;;;;;10.55;5.93;;;;;;;;;;4260468;33;20127;-69
2021/06/28 14:39:18;;;;;;;11.45;5.10;;;;;;;;;;4236008;33;20585;-67
2021/06/28 14:41:44;;;;;;;10.15;5.45;;;;;;;;;;4247634;33;20216;-68
2021/06/28 14:44:10;;;;;;;6.45;5.18;;;;;;;;;;4235511;33;20202;-67
2021/06/28 14:46:36;;;;;;;9.07;4.72;;;;;;;;;;4247587;33;20219;-67
2021/06/28 14:49:02;;;;;;;8.00;6.80;;;;;;;;;;4247440;33;20535;-67
2021/06/28 14:51:28;;;;;;;12.00;5.57;;;;;;;;;;4247479;33;20630;-68
2021/06/28 14:53:54;;;;;;;11.07;5.60;;;;;;;;;;4235999;33;20176;-67
2021/06/28 14:56:21;;;;;;;10.02;6.10;;;;;;;;;;4247273;33;20135;-68
2021/06/28 14:58:47;;;;;;;9.70;5.78;;;;;;;;;;4235642;33;20542;-68
2021/06/28 15:01:13;;;;;;;10.15;5.22;;;;;;;;;;4247689;33;20100;-68
2021/06/28 15:03:41;;;;;;;7.22;5.12;;;;;;;;;;4247415;33;20089;-72
2021/06/28 15:06:08;;;;;;;6.22;5.60;;;;;;;;;;4235939;33;20211;-69
2021/06/28 15:08:37;;;;;;;8.88;5.90;;;;;;;;;;4235826;33;20516;-72